European Seaway — MPDG3 — position and weather

sailwx.info

Track history (hours):
 
Tides and Currents Weather Stations Pressure Air Temp Water Temp Dewpoint Dewpoint Depression Visibility Wind Speed Wind Dir Waves Ship Positions

European Seaway

Operator: P & O Ferries

Last reported at 2016-Feb-11 18:33 UTC. Time now 2016-Feb-11 19:08 UTC.
Position N 51°07' E 001°20'.

Length 175 m; draft 6 m.

Type: Passenger vessel. MMSI: 232001040.

Date/timePositionNaut miles runAvg speedWind from/ knotsBaromVisibWave heightAir tempDewpointWater temp
2016-Feb-11 18:33N 51°07' E 001°20'0 0.2
2016-Feb-11 17:33N 51°07' E 001°20'1313.2
2016-Feb-11 16:33N 51°01' E 001°38'9 8.5
2016-Feb-11 15:33N 50°58' E 001°51'7 7.3
2016-Feb-11 14:33N 50°59' E 001°40'1514.7
2016-Feb-11 13:33N 51°07' E 001°20'1 0.5
2016-Feb-11 12:33N 51°07' E 001°21'1717.3
2016-Feb-11 11:33N 50°58' E 001°44'4 4.1
2016-Feb-11 10:33N 50°58' E 001°51'1 0.5
2016-Feb-11 09:33N 50°58' E 001°52'0 0.0
2016-Feb-11 08:33N 50°58' E 001°52'0 0.0
2016-Feb-11 07:33N 50°58' E 001°52'0 0.0
2016-Feb-11 06:33N 50°58' E 001°52'0 0.0
2016-Feb-11 05:33N 50°58' E 001°52'0 0.0
2016-Feb-11 04:33N 50°58' E 001°52'0 0.0
2016-Feb-11 03:33N 50°58' E 001°52'0 0.0
2016-Feb-11 02:33N 50°58' E 001°52'0 0.0
2016-Feb-11 01:33N 50°58' E 001°52'0 0.0
2016-Feb-11 00:33N 50°58' E 001°52'0 0.0
2016-Feb-10 23:33N 50°58' E 001°52'0 0.0
2016-Feb-10 22:33N 50°58' E 001°52'0 0.0
2016-Feb-10 21:33N 50°58' E 001°52'1 0.5
2016-Feb-10 20:33N 50°58' E 001°51'1010.5
2016-Feb-10 19:33N 50°60' E 001°35'1212.0
2016-Feb-10 18:33N 51°07' E 001°20'2 2.0
2016-Feb-10 17:34N 51°07' E 001°23'1817.6
2016-Feb-10 16:33N 50°58' E 001°47'2 2.2
2016-Feb-10 15:33N 50°58' E 001°51'1515.3
2016-Feb-10 14:34N 51°03' E 001°28'7 6.7
2016-Feb-10 13:33N 51°07' E 001°20'5 5.0
2016-Feb-10 12:33N 51°07' E 001°28'1414.3
2016-Feb-10 11:33N 50°58' E 001°46'3 2.9
2016-Feb-10 10:32N 50°58' E 001°51'1 0.6
2016-Feb-10 09:33N 50°58' E 001°52'0 0.0
2016-Feb-10 08:33N 50°58' E 001°52'0 0.0
2016-Feb-10 07:33N 50°58' E 001°52'0 0.0
2016-Feb-10 06:33N 50°58' E 001°52'0 0.0
2016-Feb-10 05:32N 50°58' E 001°52'0 0.0
2016-Feb-10 04:33N 50°58' E 001°52'0 0.0
2016-Feb-10 03:33N 50°58' E 001°52'0 0.0
2016-Feb-10 02:33N 50°58' E 001°52'0 0.0
2016-Feb-10 01:33N 50°58' E 001°52'0 0.0
2016-Feb-10 00:33N 50°58' E 001°52'0 0.0
2016-Feb-09 23:33N 50°58' E 001°52'0 0.0
2016-Feb-09 22:33N 50°58' E 001°52'0 0.0
2016-Feb-09 21:33N 50°58' E 001°52'2 2.0
2016-Feb-09 20:33N 50°58' E 001°49'1615.9
2016-Feb-09 19:33N 51°04' E 001°25'5 4.5
2016-Feb-09 18:34N 51°07' E 001°20'1010.4
2016-Feb-09 17:33N 51°04' E 001°36'1111.3
2016-Feb-09 16:33N 50°58' E 001°51'2 1.8
2016-Feb-09 15:33N 50°58' E 001°48'1717.1
2016-Feb-09 14:33N 51°06' E 001°24'3 2.3
2016-Feb-09 13:19N 51°07' E 001°20'5 7.0
2016-Feb-09 12:33N 51°06' E 001°28'1615.8
2016-Feb-09 11:33N 50°58' E 001°50'1 0.5
2016-Feb-09 10:26N 50°58' E 001°51'1 0.7
2016-Feb-09 09:31N 50°58' E 001°52'0 0.0
2016-Feb-09 08:31N 50°58' E 001°52'0 0.0
2016-Feb-09 07:31N 50°58' E 001°52'0 0.0
2016-Feb-09 06:31N 50°58' E 001°52'0 0.0
2016-Feb-09 05:31N 50°58' E 001°52'0 0.0
2016-Feb-09 04:31N 50°58' E 001°52'0 0.0
2016-Feb-09 03:31N 50°58' E 001°52'0 0.0
2016-Feb-09 02:31N 50°58' E 001°52'0 0.0
2016-Feb-09 01:32N 50°58' E 001°52'0 0.0
2016-Feb-09 00:29N 50°58' E 001°52'0 0.0
2016-Feb-08 23:29N 50°58' E 001°52'0 0.0
2016-Feb-08 22:32N 50°58' E 001°52'0 0.0
2016-Feb-08 21:32N 50°58' E 001°52'0 0.0
2016-Feb-08 20:29N 50°58' E 001°52'0 0.0
2016-Feb-08 19:32N 50°58' E 001°52'0 0.0
2016-Feb-08 18:26N 50°58' E 001°52'0 0.0
2016-Feb-08 17:32N 50°58' E 001°52'0 0.0
2016-Feb-08 16:29N 50°58' E 001°52'0 0.0
2016-Feb-08 15:32N 50°58' E 001°52'0 0.0
2016-Feb-08 14:32N 50°58' E 001°52'0 0.0
2016-Feb-08 13:32N 50°58' E 001°52'0 0.0
2016-Feb-08 12:29N 50°58' E 001°52'0 0.0
2016-Feb-08 11:32N 50°58' E 001°52'0 0.0
2016-Feb-08 10:33N 50°58' E 001°52'0 0.0
2016-Feb-08 09:31N 50°58' E 001°52'0 0.0
2016-Feb-08 08:30N 50°58' E 001°52'0 0.0
2016-Feb-08 07:24N 50°58' E 001°52'0 0.0
2016-Feb-08 06:33N 50°58' E 001°52'0 0.0
2016-Feb-08 05:33N 50°58' E 001°52'0 0.0
2016-Feb-08 04:21N 50°58' E 001°52'0 0.0
2016-Feb-08 03:33N 50°58' E 001°52'0 0.0
2016-Feb-08 02:28N 50°58' E 001°52'0 0.0
2016-Feb-08 01:33N 50°58' E 001°52'0 0.0
2016-Feb-08 00:03N 50°58' E 001°52'0 0.0
2016-Feb-07 23:24N 50°58' E 001°52'0 0.0
2016-Feb-07 22:13N 50°58' E 001°52'0 0.0
2016-Feb-07 21:12N 50°58' E 001°52'0 0.0
2016-Feb-07 20:27N 50°58' E 001°52'0 0.0
2016-Feb-07 19:30N 50°58' E 001°52'0 0.0
2016-Feb-07 18:21N 50°58' E 001°52'0 0.0
2016-Feb-07 17:30N 50°58' E 001°52'0 0.0
2016-Feb-07 16:33N 50°58' E 001°52'0 0.0
2016-Feb-07 15:33N 50°58' E 001°52'0 0.2
2016-Feb-07 14:25N 50°58' E 001°52'0 0.0
2016-Feb-07 13:31N 50°58' E 001°52'0 0.0
2016-Feb-07 12:31N 50°58' E 001°52'0 0.0
2016-Feb-07 11:31N 50°58' E 001°52'0 0.0
2016-Feb-07 10:31N 50°58' E 001°52'0 0.0
2016-Feb-07 09:31N 50°58' E 001°52'0 0.0
2016-Feb-07 08:31N 50°58' E 001°52'0 0.0
2016-Feb-07 07:28N 50°58' E 001°52'0 0.0
2016-Feb-07 06:28N 50°58' E 001°52'0 0.0
2016-Feb-07 05:31N 50°58' E 001°52'0 0.0
2016-Feb-07 04:31N 50°58' E 001°52'0 0.0
2016-Feb-07 03:31N 50°58' E 001°52'0 0.0
2016-Feb-07 02:31N 50°58' E 001°52'0 0.0
2016-Feb-07 01:28N 50°58' E 001°52'0 0.0
2016-Feb-07 00:31N 50°58' E 001°52'0 0.0
2016-Feb-06 23:31N 50°58' E 001°52'0 0.0
2016-Feb-06 22:31N 50°58' E 001°52'0 0.0
2016-Feb-06 21:31N 50°58' E 001°52'0 0.4
2016-Feb-06 20:33N 50°58' E 001°51'1212.0
2016-Feb-06 19:34N 51°01' E 001°32'10 9.9
2016-Feb-06 18:32N 51°07' E 001°20'0 0.1
2016-Feb-06 17:34N 51°07' E 001°20'1212.4
2016-Feb-06 16:33N 51°01' E 001°37'9 9.3
2016-Feb-06 15:33N 50°58' E 001°51'8 7.9
2016-Feb-06 14:34N 50°59' E 001°39'11 5.6
2016-Feb-06 12:33N 51°06' E 001°25'1716.9
2016-Feb-06 11:34N 50°58' E 001°48'2 1.8
2016-Feb-06 10:33N 50°58' E 001°51'1 0.5
2016-Feb-06 09:33N 50°58' E 001°52'0 0.0
2016-Feb-06 08:33N 50°58' E 001°52'0 0.0
2016-Feb-06 07:34N 50°58' E 001°52'0 0.0
2016-Feb-06 06:34N 50°58' E 001°52'0 0.0
2016-Feb-06 05:32N 50°58' E 001°52'0 0.0
2016-Feb-06 04:34N 50°58' E 001°52'0 0.0
2016-Feb-06 03:33N 50°58' E 001°52'0 0.0
2016-Feb-06 02:34N 50°58' E 001°52'0 0.0
2016-Feb-06 01:33N 50°58' E 001°52'0 0.0
2016-Feb-06 00:34N 50°58' E 001°52'0 0.0
2016-Feb-05 23:33N 50°58' E 001°52'0 0.0
2016-Feb-05 22:34N 50°58' E 001°52'0 0.0
2016-Feb-05 21:32N 50°58' E 001°52'0 0.3
2016-Feb-05 20:33N 50°58' E 001°51'8 7.7
2016-Feb-05 19:34N 50°59' E 001°39'15 7.3
2016-Feb-05 17:33N 51°07' E 001°20'1414.4
2016-Feb-05 16:33N 50°59' E 001°39'7 6.3
2016-Feb-05 15:22N 50°58' E 001°51'911.4
2016-Feb-05 14:33N 50°60' E 001°37'1312.4
2016-Feb-05 13:31N 51°07' E 001°20'1 1.5
2016-Feb-05 12:33N 51°07' E 001°22'1717.0
2016-Feb-05 11:33N 50°58' E 001°45'3 3.5
2016-Feb-05 10:33N 50°58' E 001°51'0 0.5
2016-Feb-05 09:33N 50°58' E 001°52'0 0.0
2016-Feb-05 08:33N 50°58' E 001°52'0 0.0
2016-Feb-05 07:33N 50°58' E 001°52'0 0.0
2016-Feb-05 06:33N 50°58' E 001°52'0 0.0
2016-Feb-05 05:33N 50°58' E 001°52'0 0.0
2016-Feb-05 04:33N 50°58' E 001°52'0 0.0
2016-Feb-05 03:33N 50°58' E 001°52'0 0.0
2016-Feb-05 02:33N 50°58' E 001°52'0 0.0
2016-Feb-05 01:33N 50°58' E 001°52'0 0.0
2016-Feb-05 00:33N 50°58' E 001°52'0 0.0
2016-Feb-04 23:33N 50°58' E 001°52'0 0.0
2016-Feb-04 22:33N 50°58' E 001°52'0 0.0
2016-Feb-04 21:33N 50°58' E 001°52'0 0.0
2016-Feb-04 20:33N 50°58' E 001°52'0 0.0
2016-Feb-04 19:33N 50°58' E 001°52'0 0.2
2016-Feb-04 18:33N 50°58' E 001°51'0 0.3
2016-Feb-04 17:33N 50°58' E 001°51'2 2.0
2016-Feb-04 16:33N 50°58' E 001°48'1514.9
2016-Feb-04 15:33N 51°05' E 001°26'5 2.4
2016-Feb-04 13:29N 51°07' E 001°20'1 0.9
2016-Feb-04 12:33N 51°07' E 001°21'1717.0
2016-Feb-04 11:33N 50°58' E 001°45'4 4.0
2016-Feb-04 10:33N 50°58' E 001°51'0 0.0
2016-Feb-04 09:33N 50°58' E 001°51'0 0.2
2016-Feb-04 08:33N 50°58' E 001°51'1 0.6
2016-Feb-04 07:33N 50°58' E 001°52'0 0.0
2016-Feb-04 06:33N 50°58' E 001°52'0 0.0
2016-Feb-04 05:33N 50°58' E 001°52'0 0.0
2016-Feb-04 04:33N 50°58' E 001°52'0 0.0
2016-Feb-04 03:33N 50°58' E 001°52'0 0.0
2016-Feb-04 02:33N 50°58' E 001°52'0 0.0
2016-Feb-04 01:33N 50°58' E 001°52'0 0.0
2016-Feb-04 00:32N 50°58' E 001°52'0 0.0
2016-Feb-03 23:33N 50°58' E 001°52'0 0.0
2016-Feb-03 22:33N 50°58' E 001°52'0 0.4
2016-Feb-03 21:33N 50°58' E 001°51'6 6.4
2016-Feb-03 20:33N 50°58' E 001°41'1614.7
2016-Feb-03 19:29N 51°07' E 001°20'0 0.0
2016-Feb-03 18:33N 51°07' E 001°20'1212.2
2016-Feb-03 17:34N 51°01' E 001°36'10 9.7
2016-Feb-03 16:34N 50°58' E 001°51'2 1.7
2016-Feb-03 15:33N 50°58' E 001°48'1010.2
2016-Feb-03 14:33N 51°01' E 001°33'1010.1
2016-Feb-03 13:33N 51°07' E 001°20'0 0.3
2016-Feb-03 12:33N 51°07' E 001°20'1615.8
2016-Feb-03 11:33N 50°60' E 001°42'6 5.8
2016-Feb-03 10:33N 50°58' E 001°51'0 0.0
2016-Feb-03 09:33N 50°58' E 001°51'0 0.0
2016-Feb-03 08:33N 50°58' E 001°51'0 0.0
2016-Feb-03 07:33N 50°58' E 001°51'0 0.0
2016-Feb-03 06:33N 50°58' E 001°51'0 0.0
2016-Feb-03 05:33N 50°58' E 001°51'0 0.0
2016-Feb-03 04:33N 50°58' E 001°51'0 0.0
2016-Feb-03 03:33N 50°58' E 001°51'0 0.0
2016-Feb-03 02:33N 50°58' E 001°51'0 0.0
2016-Feb-03 01:33N 50°58' E 001°51'0 0.0
2016-Feb-03 00:33N 50°58' E 001°51'0 0.0
2016-Feb-02 23:33N 50°58' E 001°51'0 0.0
2016-Feb-02 22:33N 50°58' E 001°51'0 0.0
2016-Feb-02 21:33N 50°58' E 001°51'6 6.4
2016-Feb-02 20:33N 50°58' E 001°41'1515.4
2016-Feb-02 19:33N 51°07' E 001°21'1 0.6
2016-Feb-02 18:33N 51°07' E 001°20'5 4.9
2016-Feb-02 17:34N 51°06' E 001°28'1515.1
2016-Feb-02 16:34N 50°58' E 001°48'2 2.1
2016-Feb-02 15:33N 50°58' E 001°51'1211.8
2016-Feb-02 14:33N 51°02' E 001°33'10 9.9
2016-Feb-02 13:33N 51°07' E 001°20'1 1.1
2016-Feb-02 12:34N 51°07' E 001°22'1515.3
2016-Feb-02 11:34N 50°59' E 001°43'5 5.4
2016-Feb-02 10:33N 50°58' E 001°51'0 0.0
2016-Feb-02 09:33N 50°58' E 001°51'0 0.0
2016-Feb-02 08:33N 50°58' E 001°51'0 0.0
2016-Feb-02 07:33N 50°58' E 001°51'0 0.0
2016-Feb-02 06:33N 50°58' E 001°51'0 0.0
2016-Feb-02 05:33N 50°58' E 001°51'0 0.0
2016-Feb-02 04:33N 50°58' E 001°51'0 0.0
2016-Feb-02 03:33N 50°58' E 001°51'0 0.0
2016-Feb-02 02:33N 50°58' E 001°51'0 0.0
2016-Feb-02 01:33N 50°58' E 001°51'0 0.0
2016-Feb-02 00:33N 50°58' E 001°51'0 0.0
2016-Feb-01 23:33N 50°58' E 001°51'0 0.5
2016-Feb-01 22:33N 50°58' E 001°50'1515.2
2016-Feb-01 21:34N 51°03' E 001°27'7 6.4
2016-Feb-01 20:33N 51°07' E 001°20'4 3.9
2016-Feb-01 19:33N 51°07' E 001°26'1515.0
2016-Feb-01 18:34N 50°58' E 001°45'  
Track history (hours):
 
Tides and Currents Weather Stations Pressure Air Temp Water Temp Dewpoint Dewpoint Depression Visibility Wind Speed Wind Dir Waves Ship Positions

European Seaway

Operator: P & O Ferries

Last reported at 2016-Feb-11 18:33 UTC. Time now 2016-Feb-11 19:08 UTC.
Position N 51°07' E 001°20'.

Length 175 m; draft 6 m.

Type: Passenger vessel. MMSI: 232001040.

Date/timePositionNaut miles runAvg speedWind from/ knotsBaromVisibWave heightAir tempDewpointWater temp
2016-Feb-11 18:33N 51°07' E 001°20'0 0.2
2016-Feb-11 17:33N 51°07' E 001°20'1313.2
2016-Feb-11 16:33N 51°01' E 001°38'9 8.5
2016-Feb-11 15:33N 50°58' E 001°51'7 7.3
2016-Feb-11 14:33N 50°59' E 001°40'1514.7
2016-Feb-11 13:33N 51°07' E 001°20'1 0.5
2016-Feb-11 12:33N 51°07' E 001°21'1717.3
2016-Feb-11 11:33N 50°58' E 001°44'4 4.1
2016-Feb-11 10:33N 50°58' E 001°51'1 0.5
2016-Feb-11 09:33N 50°58' E 001°52'0 0.0
2016-Feb-11 08:33N 50°58' E 001°52'0 0.0
2016-Feb-11 07:33N 50°58' E 001°52'0 0.0
2016-Feb-11 06:33N 50°58' E 001°52'0 0.0
2016-Feb-11 05:33N 50°58' E 001°52'0 0.0
2016-Feb-11 04:33N 50°58' E 001°52'0 0.0
2016-Feb-11 03:33N 50°58' E 001°52'0 0.0
2016-Feb-11 02:33N 50°58' E 001°52'0 0.0
2016-Feb-11 01:33N 50°58' E 001°52'0 0.0
2016-Feb-11 00:33N 50°58' E 001°52'0 0.0
2016-Feb-10 23:33N 50°58' E 001°52'0 0.0
2016-Feb-10 22:33N 50°58' E 001°52'0 0.0
2016-Feb-10 21:33N 50°58' E 001°52'1 0.5
2016-Feb-10 20:33N 50°58' E 001°51'1010.5
2016-Feb-10 19:33N 50°60' E 001°35'1212.0
2016-Feb-10 18:33N 51°07' E 001°20'2 2.0
2016-Feb-10 17:34N 51°07' E 001°23'1817.6
2016-Feb-10 16:33N 50°58' E 001°47'2 2.2
2016-Feb-10 15:33N 50°58' E 001°51'1515.3
2016-Feb-10 14:34N 51°03' E 001°28'7 6.7
2016-Feb-10 13:33N 51°07' E 001°20'5 5.0
2016-Feb-10 12:33N 51°07' E 001°28'1414.3
2016-Feb-10 11:33N 50°58' E 001°46'3 2.9
2016-Feb-10 10:32N 50°58' E 001°51'1 0.6
2016-Feb-10 09:33N 50°58' E 001°52'0 0.0
2016-Feb-10 08:33N 50°58' E 001°52'0 0.0
2016-Feb-10 07:33N 50°58' E 001°52'0 0.0
2016-Feb-10 06:33N 50°58' E 001°52'0 0.0
2016-Feb-10 05:32N 50°58' E 001°52'0 0.0
2016-Feb-10 04:33N 50°58' E 001°52'0 0.0
2016-Feb-10 03:33N 50°58' E 001°52'0 0.0
2016-Feb-10 02:33N 50°58' E 001°52'0 0.0
2016-Feb-10 01:33N 50°58' E 001°52'0 0.0
2016-Feb-10 00:33N 50°58' E 001°52'0 0.0
2016-Feb-09 23:33N 50°58' E 001°52'0 0.0
2016-Feb-09 22:33N 50°58' E 001°52'0 0.0
2016-Feb-09 21:33N 50°58' E 001°52'2 2.0
2016-Feb-09 20:33N 50°58' E 001°49'1615.9
2016-Feb-09 19:33N 51°04' E 001°25'5 4.5
2016-Feb-09 18:34N 51°07' E 001°20'1010.4
2016-Feb-09 17:33N 51°04' E 001°36'1111.3
2016-Feb-09 16:33N 50°58' E 001°51'2 1.8
2016-Feb-09 15:33N 50°58' E 001°48'1717.1
2016-Feb-09 14:33N 51°06' E 001°24'3 2.3
2016-Feb-09 13:19N 51°07' E 001°20'5 7.0
2016-Feb-09 12:33N 51°06' E 001°28'1615.8
2016-Feb-09 11:33N 50°58' E 001°50'1 0.5
2016-Feb-09 10:26N 50°58' E 001°51'1 0.7
2016-Feb-09 09:31N 50°58' E 001°52'0 0.0
2016-Feb-09 08:31N 50°58' E 001°52'0 0.0
2016-Feb-09 07:31N 50°58' E 001°52'0 0.0
2016-Feb-09 06:31N 50°58' E 001°52'0 0.0
2016-Feb-09 05:31N 50°58' E 001°52'0 0.0
2016-Feb-09 04:31N 50°58' E 001°52'0 0.0
2016-Feb-09 03:31N 50°58' E 001°52'0 0.0
2016-Feb-09 02:31N 50°58' E 001°52'0 0.0
2016-Feb-09 01:32N 50°58' E 001°52'0 0.0
2016-Feb-09 00:29N 50°58' E 001°52'0 0.0
2016-Feb-08 23:29N 50°58' E 001°52'0 0.0
2016-Feb-08 22:32N 50°58' E 001°52'0 0.0
2016-Feb-08 21:32N 50°58' E 001°52'0 0.0
2016-Feb-08 20:29N 50°58' E 001°52'0 0.0
2016-Feb-08 19:32N 50°58' E 001°52'0 0.0
2016-Feb-08 18:26N 50°58' E 001°52'0 0.0
2016-Feb-08 17:32N 50°58' E 001°52'0 0.0
2016-Feb-08 16:29N 50°58' E 001°52'0 0.0
2016-Feb-08 15:32N 50°58' E 001°52'0 0.0
2016-Feb-08 14:32N 50°58' E 001°52'0 0.0
2016-Feb-08 13:32N 50°58' E 001°52'0 0.0
2016-Feb-08 12:29N 50°58' E 001°52'0 0.0
2016-Feb-08 11:32N 50°58' E 001°52'0 0.0
2016-Feb-08 10:33N 50°58' E 001°52'0 0.0
2016-Feb-08 09:31N 50°58' E 001°52'0 0.0
2016-Feb-08 08:30N 50°58' E 001°52'0 0.0
2016-Feb-08 07:24N 50°58' E 001°52'0 0.0
2016-Feb-08 06:33N 50°58' E 001°52'0 0.0
2016-Feb-08 05:33N 50°58' E 001°52'0 0.0
2016-Feb-08 04:21N 50°58' E 001°52'0 0.0
2016-Feb-08 03:33N 50°58' E 001°52'0 0.0
2016-Feb-08 02:28N 50°58' E 001°52'0 0.0
2016-Feb-08 01:33N 50°58' E 001°52'0 0.0
2016-Feb-08 00:03N 50°58' E 001°52'0 0.0
2016-Feb-07 23:24N 50°58' E 001°52'0 0.0
2016-Feb-07 22:13N 50°58' E 001°52'0 0.0
2016-Feb-07 21:12N 50°58' E 001°52'0 0.0
2016-Feb-07 20:27N 50°58' E 001°52'0 0.0
2016-Feb-07 19:30N 50°58' E 001°52'0 0.0
2016-Feb-07 18:21N 50°58' E 001°52'0 0.0
2016-Feb-07 17:30N 50°58' E 001°52'0 0.0
2016-Feb-07 16:33N 50°58' E 001°52'0 0.0
2016-Feb-07 15:33N 50°58' E 001°52'0 0.2
2016-Feb-07 14:25N 50°58' E 001°52'0 0.0
2016-Feb-07 13:31N 50°58' E 001°52'0 0.0
2016-Feb-07 12:31N 50°58' E 001°52'0 0.0
2016-Feb-07 11:31N 50°58' E 001°52'0 0.0
2016-Feb-07 10:31N 50°58' E 001°52'0 0.0
2016-Feb-07 09:31N 50°58' E 001°52'0 0.0
2016-Feb-07 08:31N 50°58' E 001°52'0 0.0
2016-Feb-07 07:28N 50°58' E 001°52'0 0.0
2016-Feb-07 06:28N 50°58' E 001°52'0 0.0
2016-Feb-07 05:31N 50°58' E 001°52'0 0.0
2016-Feb-07 04:31N 50°58' E 001°52'0 0.0
2016-Feb-07 03:31N 50°58' E 001°52'0 0.0
2016-Feb-07 02:31N 50°58' E 001°52'0 0.0
2016-Feb-07 01:28N 50°58' E 001°52'0 0.0
2016-Feb-07 00:31N 50°58' E 001°52'0 0.0
2016-Feb-06 23:31N 50°58' E 001°52'0 0.0
2016-Feb-06 22:31N 50°58' E 001°52'0 0.0
2016-Feb-06 21:31N 50°58' E 001°52'0 0.4
2016-Feb-06 20:33N 50°58' E 001°51'1212.0
2016-Feb-06 19:34N 51°01' E 001°32'10 9.9
2016-Feb-06 18:32N 51°07' E 001°20'0 0.1
2016-Feb-06 17:34N 51°07' E 001°20'1212.4
2016-Feb-06 16:33N 51°01' E 001°37'9 9.3
2016-Feb-06 15:33N 50°58' E 001°51'8 7.9
2016-Feb-06 14:34N 50°59' E 001°39'11 5.6
2016-Feb-06 12:33N 51°06' E 001°25'1716.9
2016-Feb-06 11:34N 50°58' E 001°48'2 1.8
2016-Feb-06 10:33N 50°58' E 001°51'1 0.5
2016-Feb-06 09:33N 50°58' E 001°52'0 0.0
2016-Feb-06 08:33N 50°58' E 001°52'0 0.0
2016-Feb-06 07:34N 50°58' E 001°52'0 0.0
2016-Feb-06 06:34N 50°58' E 001°52'0 0.0
2016-Feb-06 05:32N 50°58' E 001°52'0 0.0
2016-Feb-06 04:34N 50°58' E 001°52'0 0.0
2016-Feb-06 03:33N 50°58' E 001°52'0 0.0
2016-Feb-06 02:34N 50°58' E 001°52'0 0.0
2016-Feb-06 01:33N 50°58' E 001°52'0 0.0
2016-Feb-06 00:34N 50°58' E 001°52'0 0.0
2016-Feb-05 23:33N 50°58' E 001°52'0 0.0
2016-Feb-05 22:34N 50°58' E 001°52'0 0.0
2016-Feb-05 21:32N 50°58' E 001°52'0 0.3
2016-Feb-05 20:33N 50°58' E 001°51'8 7.7
2016-Feb-05 19:34N 50°59' E 001°39'15 7.3
2016-Feb-05 17:33N 51°07' E 001°20'1414.4
2016-Feb-05 16:33N 50°59' E 001°39'7 6.3
2016-Feb-05 15:22N 50°58' E 001°51'911.4
2016-Feb-05 14:33N 50°60' E 001°37'1312.4
2016-Feb-05 13:31N 51°07' E 001°20'1 1.5
2016-Feb-05 12:33N 51°07' E 001°22'1717.0
2016-Feb-05 11:33N 50°58' E 001°45'3 3.5
2016-Feb-05 10:33N 50°58' E 001°51'0 0.5
2016-Feb-05 09:33N 50°58' E 001°52'0 0.0
2016-Feb-05 08:33N 50°58' E 001°52'0 0.0
2016-Feb-05 07:33N 50°58' E 001°52'0 0.0
2016-Feb-05 06:33N 50°58' E 001°52'0 0.0
2016-Feb-05 05:33N 50°58' E 001°52'0 0.0
2016-Feb-05 04:33N 50°58' E 001°52'0 0.0
2016-Feb-05 03:33N 50°58' E 001°52'0 0.0
2016-Feb-05 02:33N 50°58' E 001°52'0 0.0
2016-Feb-05 01:33N 50°58' E 001°52'0 0.0
2016-Feb-05 00:33N 50°58' E 001°52'0 0.0
2016-Feb-04 23:33N 50°58' E 001°52'0 0.0
2016-Feb-04 22:33N 50°58' E 001°52'0 0.0
2016-Feb-04 21:33N 50°58' E 001°52'0 0.0
2016-Feb-04 20:33N 50°58' E 001°52'0 0.0
2016-Feb-04 19:33N 50°58' E 001°52'0 0.2
2016-Feb-04 18:33N 50°58' E 001°51'0 0.3
2016-Feb-04 17:33N 50°58' E 001°51'2 2.0
2016-Feb-04 16:33N 50°58' E 001°48'1514.9
2016-Feb-04 15:33N 51°05' E 001°26'5 2.4
2016-Feb-04 13:29N 51°07' E 001°20'1 0.9
2016-Feb-04 12:33N 51°07' E 001°21'1717.0
2016-Feb-04 11:33N 50°58' E 001°45'4 4.0
2016-Feb-04 10:33N 50°58' E 001°51'0 0.0
2016-Feb-04 09:33N 50°58' E 001°51'0 0.2
2016-Feb-04 08:33N 50°58' E 001°51'1 0.6
2016-Feb-04 07:33N 50°58' E 001°52'0 0.0
2016-Feb-04 06:33N 50°58' E 001°52'0 0.0
2016-Feb-04 05:33N 50°58' E 001°52'0 0.0
2016-Feb-04 04:33N 50°58' E 001°52'0 0.0
2016-Feb-04 03:33N 50°58' E 001°52'0 0.0
2016-Feb-04 02:33N 50°58' E 001°52'0 0.0
2016-Feb-04 01:33N 50°58' E 001°52'0 0.0
2016-Feb-04 00:32N 50°58' E 001°52'0 0.0
2016-Feb-03 23:33N 50°58' E 001°52'0 0.0
2016-Feb-03 22:33N 50°58' E 001°52'0 0.4
2016-Feb-03 21:33N 50°58' E 001°51'6 6.4
2016-Feb-03 20:33N 50°58' E 001°41'1614.7
2016-Feb-03 19:29N 51°07' E 001°20'0 0.0
2016-Feb-03 18:33N 51°07' E 001°20'1212.2
2016-Feb-03 17:34N 51°01' E 001°36'10 9.7
2016-Feb-03 16:34N 50°58' E 001°51'2 1.7
2016-Feb-03 15:33N 50°58' E 001°48'1010.2
2016-Feb-03 14:33N 51°01' E 001°33'1010.1
2016-Feb-03 13:33N 51°07' E 001°20'0 0.3
2016-Feb-03 12:33N 51°07' E 001°20'1615.8
2016-Feb-03 11:33N 50°60' E 001°42'6 5.8
2016-Feb-03 10:33N 50°58' E 001°51'0 0.0
2016-Feb-03 09:33N 50°58' E 001°51'0 0.0
2016-Feb-03 08:33N 50°58' E 001°51'0 0.0
2016-Feb-03 07:33N 50°58' E 001°51'0 0.0
2016-Feb-03 06:33N 50°58' E 001°51'0 0.0
2016-Feb-03 05:33N 50°58' E 001°51'0 0.0
2016-Feb-03 04:33N 50°58' E 001°51'0 0.0
2016-Feb-03 03:33N 50°58' E 001°51'0 0.0
2016-Feb-03 02:33N 50°58' E 001°51'0 0.0
2016-Feb-03 01:33N 50°58' E 001°51'0 0.0
2016-Feb-03 00:33N 50°58' E 001°51'0 0.0
2016-Feb-02 23:33N 50°58' E 001°51'0 0.0
2016-Feb-02 22:33N 50°58' E 001°51'0 0.0
2016-Feb-02 21:33N 50°58' E 001°51'6 6.4
2016-Feb-02 20:33N 50°58' E 001°41'1515.4
2016-Feb-02 19:33N 51°07' E 001°21'1 0.6
2016-Feb-02 18:33N 51°07' E 001°20'5 4.9
2016-Feb-02 17:34N 51°06' E 001°28'1515.1
2016-Feb-02 16:34N 50°58' E 001°48'2 2.1
2016-Feb-02 15:33N 50°58' E 001°51'1211.8
2016-Feb-02 14:33N 51°02' E 001°33'10 9.9
2016-Feb-02 13:33N 51°07' E 001°20'1 1.1
2016-Feb-02 12:34N 51°07' E 001°22'1515.3
2016-Feb-02 11:34N 50°59' E 001°43'5 5.4
2016-Feb-02 10:33N 50°58' E 001°51'0 0.0
2016-Feb-02 09:33N 50°58' E 001°51'0 0.0
2016-Feb-02 08:33N 50°58' E 001°51'0 0.0
2016-Feb-02 07:33N 50°58' E 001°51'0 0.0
2016-Feb-02 06:33N 50°58' E 001°51'0 0.0
2016-Feb-02 05:33N 50°58' E 001°51'0 0.0
2016-Feb-02 04:33N 50°58' E 001°51'0 0.0
2016-Feb-02 03:33N 50°58' E 001°51'0 0.0
2016-Feb-02 02:33N 50°58' E 001°51'0 0.0
2016-Feb-02 01:33N 50°58' E 001°51'0 0.0
2016-Feb-02 00:33N 50°58' E 001°51'0 0.0
2016-Feb-01 23:33N 50°58' E 001°51'0 0.5
2016-Feb-01 22:33N 50°58' E 001°50'1515.2
2016-Feb-01 21:34N 51°03' E 001°27'7 6.4
2016-Feb-01 20:33N 51°07' E 001°20'4 3.9
2016-Feb-01 19:33N 51°07' E 001°26'1515.0
2016-Feb-01 18:34N 50°58' E 001°45'  

Dump ship's entire track history